sensor_id;sensor_type;location;lat;lon;timestamp;P1;durP1;ratioP1;P2;durP2;ratioP2
70997;SDS011;58663;52.040;4.634;2023-02-23T00:01:22;112.10;;;33.28;;
70997;SDS011;58663;52.040;4.634;2023-02-23T00:03:49;125.22;;;34.85;;
70997;SDS011;58663;52.040;4.634;2023-02-23T00:06:16;146.25;;;35.90;;
70997;SDS011;58663;52.040;4.634;2023-02-23T00:08:42;117.03;;;33.78;;
70997;SDS011;58663;52.040;4.634;2023-02-23T00:11:09;124.82;;;35.90;;
70997;SDS011;58663;52.040;4.634;2023-02-23T00:13:36;133.57;;;37.42;;
70997;SDS011;58663;52.040;4.634;2023-02-23T00:16:03;131.82;;;35.33;;
70997;SDS011;58663;52.040;4.634;2023-02-23T00:18:30;134.15;;;36.38;;
70997;SDS011;58663;52.040;4.634;2023-02-23T00:21:05;135.45;;;37.20;;
70997;SDS011;58663;52.040;4.634;2023-02-23T00:23:30;142.05;;;36.08;;
70997;SDS011;58663;52.040;4.634;2023-02-23T00:25:55;136.30;;;35.92;;
70997;SDS011;58663;52.040;4.634;2023-02-23T00:28:23;130.32;;;37.13;;
70997;SDS011;58663;52.040;4.634;2023-02-23T00:30:48;131.75;;;35.75;;
70997;SDS011;58663;52.040;4.634;2023-02-23T00:33:14;128.57;;;35.78;;
70997;SDS011;58663;52.040;4.634;2023-02-23T00:35:39;137.80;;;37.15;;
70997;SDS011;58663;52.040;4.634;2023-02-23T00:38:05;122.95;;;34.25;;
70997;SDS011;58663;52.040;4.634;2023-02-23T00:40:30;147.93;;;38.42;;
70997;SDS011;58663;52.040;4.634;2023-02-23T00:42:56;128.32;;;35.10;;
70997;SDS011;58663;52.040;4.634;2023-02-23T00:45:22;150.10;;;38.53;;
70997;SDS011;58663;52.040;4.634;2023-02-23T00:47:47;146.75;;;36.72;;
70997;SDS011;58663;52.040;4.634;2023-02-23T00:50:14;128.18;;;33.70;;
70997;SDS011;58663;52.040;4.634;2023-02-23T00:52:41;139.70;;;37.08;;
70997;SDS011;58663;52.040;4.634;2023-02-23T00:55:08;147.90;;;37.83;;
70997;SDS011;58663;52.040;4.634;2023-02-23T00:57:37;151.10;;;36.75;;
70997;SDS011;58663;52.040;4.634;2023-02-23T01:00:04;135.93;;;36.38;;
70997;SDS011;58663;52.040;4.634;2023-02-23T01:02:46;136.43;;;34.42;;
70997;SDS011;58663;52.040;4.634;2023-02-23T01:05:12;143.77;;;35.70;;
70997;SDS011;58663;52.040;4.634;2023-02-23T01:07:38;136.48;;;36.55;;
70997;SDS011;58663;52.040;4.634;2023-02-23T01:10:04;146.20;;;36.25;;
70997;SDS011;58663;52.040;4.634;2023-02-23T01:12:44;134.52;;;32.95;;
70997;SDS011;58663;52.040;4.634;2023-02-23T01:17:39;136.95;;;33.58;;
70997;SDS011;58663;52.040;4.634;2023-02-23T01:20:04;145.50;;;36.83;;
70997;SDS011;58663;52.040;4.634;2023-02-23T01:22:48;156.70;;;36.72;;
70997;SDS011;58663;52.040;4.634;2023-02-23T01:25:16;157.10;;;36.10;;
70997;SDS011;58663;52.040;4.634;2023-02-23T01:27:42;131.57;;;35.72;;
70997;SDS011;58663;52.040;4.634;2023-02-23T01:30:10;137.93;;;35.70;;
70997;SDS011;58663;52.040;4.634;2023-02-23T01:32:37;154.00;;;36.92;;
70997;SDS011;58663;52.040;4.634;2023-02-23T01:35:06;136.88;;;34.28;;
70997;SDS011;58663;52.040;4.634;2023-02-23T01:37:34;160.82;;;37.53;;
70997;SDS011;58663;52.040;4.634;2023-02-23T01:40:01;135.30;;;34.35;;
70997;SDS011;58663;52.040;4.634;2023-02-23T01:42:35;149.30;;;35.00;;
70997;SDS011;58663;52.040;4.634;2023-02-23T01:47:50;141.70;;;35.58;;
70997;SDS011;58663;52.040;4.634;2023-02-23T01:50:18;153.15;;;35.40;;
70997;SDS011;58663;52.040;4.634;2023-02-23T01:52:44;150.32;;;34.50;;
70997;SDS011;58663;52.040;4.634;2023-02-23T01:55:11;133.63;;;33.60;;
70997;SDS011;58663;52.040;4.634;2023-02-23T01:57:38;137.32;;;36.30;;
70997;SDS011;58663;52.040;4.634;2023-02-23T02:00:04;160.07;;;35.67;;
70997;SDS011;58663;52.040;4.634;2023-02-23T02:02:38;150.45;;;36.90;;
70997;SDS011;58663;52.040;4.634;2023-02-23T02:05:03;138.80;;;33.85;;
70997;SDS011;58663;52.040;4.634;2023-02-23T02:07:32;142.40;;;33.15;;
70997;SDS011;58663;52.040;4.634;2023-02-23T02:09:59;127.35;;;32.15;;
70997;SDS011;58663;52.040;4.634;2023-02-23T02:12:37;146.35;;;34.15;;
70997;SDS011;58663;52.040;4.634;2023-02-23T02:15:04;141.23;;;33.67;;
70997;SDS011;58663;52.040;4.634;2023-02-23T02:20:42;162.25;;;36.10;;
70997;SDS011;58663;52.040;4.634;2023-02-23T02:31:42;150.68;;;35.60;;
70997;SDS011;58663;52.040;4.634;2023-02-23T02:42:36;150.75;;;34.45;;
70997;SDS011;58663;52.040;4.634;2023-02-23T02:47:47;162.98;;;36.95;;
70997;SDS011;58663;52.040;4.634;2023-02-23T02:50:20;141.13;;;33.72;;
70997;SDS011;58663;52.040;4.634;2023-02-23T02:52:56;148.30;;;35.00;;
70997;SDS011;58663;52.040;4.634;2023-02-23T02:55:27;158.15;;;36.88;;
70997;SDS011;58663;52.040;4.634;2023-02-23T02:57:58;148.57;;;35.08;;
70997;SDS011;58663;52.040;4.634;2023-02-23T03:00:28;143.43;;;34.33;;
70997;SDS011;58663;52.040;4.634;2023-02-23T03:03:27;133.70;;;32.50;;
70997;SDS011;58663;52.040;4.634;2023-02-23T03:06:14;137.27;;;31.75;;
70997;SDS011;58663;52.040;4.634;2023-02-23T03:14:58;150.30;;;33.63;;
70997;SDS011;58663;52.040;4.634;2023-02-23T03:17:48;157.30;;;31.98;;
70997;SDS011;58663;52.040;4.634;2023-02-23T03:20:44;142.77;;;30.50;;
70997;SDS011;58663;52.040;4.634;2023-02-23T03:23:48;150.20;;;33.38;;
70997;SDS011;58663;52.040;4.634;2023-02-23T03:26:58;156.85;;;33.20;;
70997;SDS011;58663;52.040;4.634;2023-02-23T03:29:51;140.98;;;32.13;;
70997;SDS011;58663;52.040;4.634;2023-02-23T03:32:46;146.90;;;32.20;;
70997;SDS011;58663;52.040;4.634;2023-02-23T03:35:38;144.85;;;31.20;;
70997;SDS011;58663;52.040;4.634;2023-02-23T03:41:29;160.85;;;33.25;;
70997;SDS011;58663;52.040;4.634;2023-02-23T03:44:18;157.25;;;33.35;;
70997;SDS011;58663;52.040;4.634;2023-02-23T03:47:06;170.85;;;34.42;;
70997;SDS011;58663;52.040;4.634;2023-02-23T03:49:51;154.60;;;33.80;;
70997;SDS011;58663;52.040;4.634;2023-02-23T03:52:45;162.82;;;35.50;;
70997;SDS011;58663;52.040;4.634;2023-02-23T03:55:33;166.18;;;34.75;;
70997;SDS011;58663;52.040;4.634;2023-02-23T03:58:29;193.45;;;35.08;;
70997;SDS011;58663;52.040;4.634;2023-02-23T04:01:15;158.02;;;33.80;;
70997;SDS011;58663;52.040;4.634;2023-02-23T04:04:00;155.88;;;33.47;;
70997;SDS011;58663;52.040;4.634;2023-02-23T04:06:45;151.75;;;31.92;;
70997;SDS011;58663;52.040;4.634;2023-02-23T04:09:30;161.23;;;33.72;;
70997;SDS011;58663;52.040;4.634;2023-02-23T04:12:16;164.57;;;32.85;;
70997;SDS011;58663;52.040;4.634;2023-02-23T04:15:09;145.27;;;31.90;;
70997;SDS011;58663;52.040;4.634;2023-02-23T04:17:39;182.57;;;33.97;;
70997;SDS011;58663;52.040;4.634;2023-02-23T04:20:05;153.60;;;32.13;;
70997;SDS011;58663;52.040;4.634;2023-02-23T04:22:31;175.52;;;35.45;;
70997;SDS011;58663;52.040;4.634;2023-02-23T04:24:56;150.55;;;31.95;;
70997;SDS011;58663;52.040;4.634;2023-02-23T04:27:22;149.50;;;31.70;;
70997;SDS011;58663;52.040;4.634;2023-02-23T04:29:47;152.52;;;33.03;;
70997;SDS011;58663;52.040;4.634;2023-02-23T04:32:13;158.32;;;32.42;;
70997;SDS011;58663;52.040;4.634;2023-02-23T04:34:40;155.63;;;32.97;;
70997;SDS011;58663;52.040;4.634;2023-02-23T04:37:06;157.65;;;32.47;;
70997;SDS011;58663;52.040;4.634;2023-02-23T04:39:32;148.25;;;31.65;;
70997;SDS011;58663;52.040;4.634;2023-02-23T04:41:57;152.88;;;30.52;;
70997;SDS011;58663;52.040;4.634;2023-02-23T04:44:22;151.75;;;31.05;;
70997;SDS011;58663;52.040;4.634;2023-02-23T04:46:48;164.38;;;31.52;;
70997;SDS011;58663;52.040;4.634;2023-02-23T04:49:13;156.93;;;30.02;;
70997;SDS011;58663;52.040;4.634;2023-02-23T04:51:38;160.95;;;33.83;;
70997;SDS011;58663;52.040;4.634;2023-02-23T04:54:04;155.15;;;32.83;;
70997;SDS011;58663;52.040;4.634;2023-02-23T04:56:30;130.00;;;29.10;;
70997;SDS011;58663;52.040;4.634;2023-02-23T04:58:55;139.07;;;32.60;;
70997;SDS011;58663;52.040;4.634;2023-02-23T05:01:21;145.80;;;30.58;;
70997;SDS011;58663;52.040;4.634;2023-02-23T05:03:47;152.23;;;31.48;;
70997;SDS011;58663;52.040;4.634;2023-02-23T05:06:13;130.07;;;27.85;;
70997;SDS011;58663;52.040;4.634;2023-02-23T05:08:42;140.70;;;30.23;;
70997;SDS011;58663;52.040;4.634;2023-02-23T05:11:08;137.02;;;29.17;;
70997;SDS011;58663;52.040;4.634;2023-02-23T05:13:33;143.43;;;29.70;;
70997;SDS011;58663;52.040;4.634;2023-02-23T05:15:59;137.02;;;30.27;;
70997;SDS011;58663;52.040;4.634;2023-02-23T05:18:24;130.95;;;28.75;;
70997;SDS011;58663;52.040;4.634;2023-02-23T05:20:50;155.32;;;32.42;;
70997;SDS011;58663;52.040;4.634;2023-02-23T05:23:16;133.38;;;31.35;;
70997;SDS011;58663;52.040;4.634;2023-02-23T05:25:42;133.73;;;28.90;;
70997;SDS011;58663;52.040;4.634;2023-02-23T05:28:07;123.35;;;29.30;;
70997;SDS011;58663;52.040;4.634;2023-02-23T05:30:33;145.18;;;30.98;;
70997;SDS011;58663;52.040;4.634;2023-02-23T05:32:58;150.50;;;31.42;;
70997;SDS011;58663;52.040;4.634;2023-02-23T05:35:24;143.93;;;29.75;;
70997;SDS011;58663;52.040;4.634;2023-02-23T05:37:50;137.77;;;29.40;;
70997;SDS011;58663;52.040;4.634;2023-02-23T05:40:15;136.25;;;28.88;;
70997;SDS011;58663;52.040;4.634;2023-02-23T05:42:40;134.52;;;30.10;;
70997;SDS011;58663;52.040;4.634;2023-02-23T05:45:06;126.75;;;28.15;;
70997;SDS011;58663;52.040;4.634;2023-02-23T05:47:32;147.73;;;31.75;;
70997;SDS011;58663;52.040;4.634;2023-02-23T05:50:02;140.98;;;29.90;;
70997;SDS011;58663;52.040;4.634;2023-02-23T05:52:29;163.23;;;34.17;;
70997;SDS011;58663;52.040;4.634;2023-02-23T05:54:54;148.73;;;30.13;;
70997;SDS011;58663;52.040;4.634;2023-02-23T05:57:19;140.32;;;28.58;;
70997;SDS011;58663;52.040;4.634;2023-02-23T05:59:45;151.18;;;31.80;;
70997;SDS011;58663;52.040;4.634;2023-02-23T06:02:10;155.40;;;31.58;;
70997;SDS011;58663;52.040;4.634;2023-02-23T06:04:35;134.98;;;29.10;;
70997;SDS011;58663;52.040;4.634;2023-02-23T06:07:01;128.13;;;27.20;;
70997;SDS011;58663;52.040;4.634;2023-02-23T06:09:26;127.90;;;26.95;;
70997;SDS011;58663;52.040;4.634;2023-02-23T06:11:51;142.50;;;29.48;;
70997;SDS011;58663;52.040;4.634;2023-02-23T06:14:17;156.05;;;31.35;;
70997;SDS011;58663;52.040;4.634;2023-02-23T06:16:42;167.35;;;31.85;;
70997;SDS011;58663;52.040;4.634;2023-02-23T06:19:09;173.63;;;32.67;;
70997;SDS011;58663;52.040;4.634;2023-02-23T06:21:35;149.75;;;29.08;;
70997;SDS011;58663;52.040;4.634;2023-02-23T06:24:00;150.13;;;29.52;;
70997;SDS011;58663;52.040;4.634;2023-02-23T06:26:26;150.88;;;31.70;;
70997;SDS011;58663;52.040;4.634;2023-02-23T06:28:52;144.98;;;28.27;;
70997;SDS011;58663;52.040;4.634;2023-02-23T06:31:18;147.13;;;28.17;;
70997;SDS011;58663;52.040;4.634;2023-02-23T06:33:43;123.60;;;26.27;;
70997;SDS011;58663;52.040;4.634;2023-02-23T06:36:09;135.48;;;25.88;;
70997;SDS011;58663;52.040;4.634;2023-02-23T06:38:34;143.38;;;27.08;;
70997;SDS011;58663;52.040;4.634;2023-02-23T06:41:05;133.23;;;26.90;;
70997;SDS011;58663;52.040;4.634;2023-02-23T06:43:34;125.80;;;25.48;;
70997;SDS011;58663;52.040;4.634;2023-02-23T06:45:59;123.25;;;25.38;;
70997;SDS011;58663;52.040;4.634;2023-02-23T06:48:24;129.73;;;26.90;;
70997;SDS011;58663;52.040;4.634;2023-02-23T06:50:50;128.32;;;27.58;;
70997;SDS011;58663;52.040;4.634;2023-02-23T06:53:16;126.28;;;26.35;;
70997;SDS011;58663;52.040;4.634;2023-02-23T06:55:42;149.35;;;27.15;;
70997;SDS011;58663;52.040;4.634;2023-02-23T06:58:07;155.35;;;27.98;;
70997;SDS011;58663;52.040;4.634;2023-02-23T07:00:33;145.25;;;28.30;;
70997;SDS011;58663;52.040;4.634;2023-02-23T07:02:58;156.00;;;27.30;;
70997;SDS011;58663;52.040;4.634;2023-02-23T07:05:24;168.25;;;28.25;;
70997;SDS011;58663;52.040;4.634;2023-02-23T07:07:49;170.13;;;30.20;;
70997;SDS011;58663;52.040;4.634;2023-02-23T07:10:16;154.27;;;29.10;;
70997;SDS011;58663;52.040;4.634;2023-02-23T07:12:42;159.50;;;30.40;;
70997;SDS011;58663;52.040;4.634;2023-02-23T07:15:07;179.75;;;30.20;;
70997;SDS011;58663;52.040;4.634;2023-02-23T07:17:34;158.60;;;28.10;;
70997;SDS011;58663;52.040;4.634;2023-02-23T07:19:59;143.20;;;27.23;;
70997;SDS011;58663;52.040;4.634;2023-02-23T07:22:25;136.18;;;25.80;;
70997;SDS011;58663;52.040;4.634;2023-02-23T07:24:53;165.60;;;29.48;;
70997;SDS011;58663;52.040;4.634;2023-02-23T07:27:18;163.55;;;27.58;;
70997;SDS011;58663;52.040;4.634;2023-02-23T07:29:44;160.00;;;27.88;;
70997;SDS011;58663;52.040;4.634;2023-02-23T07:32:09;171.63;;;27.23;;
70997;SDS011;58663;52.040;4.634;2023-02-23T07:34:34;171.05;;;27.42;;
70997;SDS011;58663;52.040;4.634;2023-02-23T07:37:01;197.63;;;29.85;;
70997;SDS011;58663;52.040;4.634;2023-02-23T07:39:26;167.82;;;28.70;;
70997;SDS011;58663;52.040;4.634;2023-02-23T07:41:51;173.00;;;27.33;;
70997;SDS011;58663;52.040;4.634;2023-02-23T07:44:17;166.65;;;29.83;;
70997;SDS011;58663;52.040;4.634;2023-02-23T07:46:43;168.50;;;30.35;;
70997;SDS011;58663;52.040;4.634;2023-02-23T07:49:10;179.80;;;28.95;;
70997;SDS011;58663;52.040;4.634;2023-02-23T07:51:35;190.80;;;28.95;;
70997;SDS011;58663;52.040;4.634;2023-02-23T07:54:01;189.77;;;29.95;;
70997;SDS011;58663;52.040;4.634;2023-02-23T07:56:28;166.70;;;28.67;;
70997;SDS011;58663;52.040;4.634;2023-02-23T07:58:54;177.45;;;27.75;;
70997;SDS011;58663;52.040;4.634;2023-02-23T08:01:19;182.23;;;27.75;;
70997;SDS011;58663;52.040;4.634;2023-02-23T08:03:44;163.35;;;27.13;;
70997;SDS011;58663;52.040;4.634;2023-02-23T08:06:13;163.00;;;26.17;;
70997;SDS011;58663;52.040;4.634;2023-02-23T08:08:40;162.48;;;27.98;;
70997;SDS011;58663;52.040;4.634;2023-02-23T08:11:05;182.95;;;27.50;;
70997;SDS011;58663;52.040;4.634;2023-02-23T08:13:31;165.13;;;25.42;;
70997;SDS011;58663;52.040;4.634;2023-02-23T08:15:56;183.75;;;26.60;;
70997;SDS011;58663;52.040;4.634;2023-02-23T08:18:23;174.73;;;24.95;;
70997;SDS011;58663;52.040;4.634;2023-02-23T08:20:48;147.13;;;25.20;;
70997;SDS011;58663;52.040;4.634;2023-02-23T08:23:13;162.90;;;23.48;;
70997;SDS011;58663;52.040;4.634;2023-02-23T08:25:42;175.38;;;26.55;;
70997;SDS011;58663;52.040;4.634;2023-02-23T08:28:07;152.77;;;25.52;;
70997;SDS011;58663;52.040;4.634;2023-02-23T08:30:32;185.70;;;26.13;;
70997;SDS011;58663;52.040;4.634;2023-02-23T08:32:58;179.35;;;27.42;;
70997;SDS011;58663;52.040;4.634;2023-02-23T08:35:25;172.77;;;25.38;;
70997;SDS011;58663;52.040;4.634;2023-02-23T08:37:51;185.70;;;27.65;;
70997;SDS011;58663;52.040;4.634;2023-02-23T08:40:16;172.38;;;26.52;;
70997;SDS011;58663;52.040;4.634;2023-02-23T08:42:44;151.88;;;24.15;;
70997;SDS011;58663;52.040;4.634;2023-02-23T08:45:10;146.85;;;24.63;;
70997;SDS011;58663;52.040;4.634;2023-02-23T08:47:35;130.68;;;23.60;;
70997;SDS011;58663;52.040;4.634;2023-02-23T08:50:01;146.88;;;24.63;;
70997;SDS011;58663;52.040;4.634;2023-02-23T08:52:27;133.43;;;28.10;;
70997;SDS011;58663;52.040;4.634;2023-02-23T08:54:52;182.27;;;38.85;;
70997;SDS011;58663;52.040;4.634;2023-02-23T08:57:19;131.77;;;25.95;;
70997;SDS011;58663;52.040;4.634;2023-02-23T08:59:44;140.60;;;24.50;;
70997;SDS011;58663;52.040;4.634;2023-02-23T09:02:10;134.50;;;24.10;;
70997;SDS011;58663;52.040;4.634;2023-02-23T09:04:36;140.95;;;22.88;;
70997;SDS011;58663;52.040;4.634;2023-02-23T09:07:03;138.93;;;22.67;;
70997;SDS011;58663;52.040;4.634;2023-02-23T09:09:29;134.70;;;24.02;;
70997;SDS011;58663;52.040;4.634;2023-02-23T09:11:54;125.00;;;22.02;;
70997;SDS011;58663;52.040;4.634;2023-02-23T09:14:20;105.78;;;19.55;;
70997;SDS011;58663;52.040;4.634;2023-02-23T09:16:45;97.30;;;18.60;;
70997;SDS011;58663;52.040;4.634;2023-02-23T09:19:11;78.03;;;16.70;;
70997;SDS011;58663;52.040;4.634;2023-02-23T09:21:36;79.95;;;17.55;;
70997;SDS011;58663;52.040;4.634;2023-02-23T09:24:02;76.90;;;16.48;;
70997;SDS011;58663;52.040;4.634;2023-02-23T09:26:27;58.00;;;15.10;;
70997;SDS011;58663;52.040;4.634;2023-02-23T09:28:53;64.40;;;15.77;;
70997;SDS011;58663;52.040;4.634;2023-02-23T09:31:20;51.80;;;15.05;;
70997;SDS011;58663;52.040;4.634;2023-02-23T09:33:46;61.55;;;15.57;;
70997;SDS011;58663;52.040;4.634;2023-02-23T09:36:13;51.58;;;15.20;;
70997;SDS011;58663;52.040;4.634;2023-02-23T09:38:41;52.70;;;14.60;;
70997;SDS011;58663;52.040;4.634;2023-02-23T09:41:15;48.97;;;14.70;;
70997;SDS011;58663;52.040;4.634;2023-02-23T09:46:43;37.47;;;12.85;;
70997;SDS011;58663;52.040;4.634;2023-02-23T09:49:10;42.70;;;12.73;;
70997;SDS011;58663;52.040;4.634;2023-02-23T09:51:39;30.02;;;12.30;;
70997;SDS011;58663;52.040;4.634;2023-02-23T09:54:06;32.65;;;11.77;;
70997;SDS011;58663;52.040;4.634;2023-02-23T09:56:36;27.63;;;11.43;;
70997;SDS011;58663;52.040;4.634;2023-02-23T09:59:09;28.77;;;10.82;;
70997;SDS011;58663;52.040;4.634;2023-02-23T10:07:12;24.90;;;10.07;;
70997;SDS011;58663;52.040;4.634;2023-02-23T10:12:59;23.33;;;9.60;;
70997;SDS011;58663;52.040;4.634;2023-02-23T10:18:32;21.17;;;9.68;;
70997;SDS011;58663;52.040;4.634;2023-02-23T10:21:04;21.10;;;9.68;;
70997;SDS011;58663;52.040;4.634;2023-02-23T10:23:42;23.88;;;10.15;;
70997;SDS011;58663;52.040;4.634;2023-02-23T10:26:14;24.70;;;9.57;;
70997;SDS011;58663;52.040;4.634;2023-02-23T10:28:41;24.17;;;8.82;;
70997;SDS011;58663;52.040;4.634;2023-02-23T10:33:56;21.90;;;9.38;;
70997;SDS011;58663;52.040;4.634;2023-02-23T10:36:36;22.17;;;9.63;;
70997;SDS011;58663;52.040;4.634;2023-02-23T10:39:04;22.15;;;9.63;;
70997;SDS011;58663;52.040;4.634;2023-02-23T10:41:31;22.15;;;9.57;;
70997;SDS011;58663;52.040;4.634;2023-02-23T10:43:56;26.13;;;10.77;;
70997;SDS011;58663;52.040;4.634;2023-02-23T10:46:23;21.65;;;10.32;;
70997;SDS011;58663;52.040;4.634;2023-02-23T10:48:58;23.58;;;8.98;;
70997;SDS011;58663;52.040;4.634;2023-02-23T10:51:25;26.23;;;9.65;;
70997;SDS011;58663;52.040;4.634;2023-02-23T10:53:53;24.77;;;8.98;;
70997;SDS011;58663;52.040;4.634;2023-02-23T10:56:20;23.98;;;9.43;;
70997;SDS011;58663;52.040;4.634;2023-02-23T10:58:47;21.25;;;8.82;;
70997;SDS011;58663;52.040;4.634;2023-02-23T11:04:15;20.98;;;9.38;;
70997;SDS011;58663;52.040;4.634;2023-02-23T11:06:44;25.60;;;9.30;;
70997;SDS011;58663;52.040;4.634;2023-02-23T11:12:02;23.75;;;8.20;;
70997;SDS011;58663;52.040;4.634;2023-02-23T11:14:31;22.50;;;8.47;;
70997;SDS011;58663;52.040;4.634;2023-02-23T11:16:57;21.30;;;9.32;;
70997;SDS011;58663;52.040;4.634;2023-02-23T11:21:58;19.15;;;9.13;;
70997;SDS011;58663;52.040;4.634;2023-02-23T11:24:25;21.20;;;9.13;;
70997;SDS011;58663;52.040;4.634;2023-02-23T11:26:57;20.20;;;8.88;;
70997;SDS011;58663;52.040;4.634;2023-02-23T11:32:03;15.98;;;8.63;;
70997;SDS011;58663;52.040;4.634;2023-02-23T11:37:02;23.92;;;9.90;;
70997;SDS011;58663;52.040;4.634;2023-02-23T11:39:30;24.52;;;9.65;;
70997;SDS011;58663;52.040;4.634;2023-02-23T11:44:39;27.27;;;11.10;;
70997;SDS011;58663;52.040;4.634;2023-02-23T11:47:04;24.08;;;9.13;;
70997;SDS011;58663;52.040;4.634;2023-02-23T11:49:30;22.40;;;9.07;;
70997;SDS011;58663;52.040;4.634;2023-02-23T11:51:59;21.60;;;9.83;;
70997;SDS011;58663;52.040;4.634;2023-02-23T11:54:28;21.27;;;9.05;;
70997;SDS011;58663;52.040;4.634;2023-02-23T11:56:57;22.25;;;10.30;;
70997;SDS011;58663;52.040;4.634;2023-02-23T11:59:30;28.90;;;10.85;;
70997;SDS011;58663;52.040;4.634;2023-02-23T12:02:01;30.73;;;11.65;;
70997;SDS011;58663;52.040;4.634;2023-02-23T12:05:08;31.85;;;12.75;;
70997;SDS011;58663;52.040;4.634;2023-02-23T12:07:40;31.40;;;12.60;;
70997;SDS011;58663;52.040;4.634;2023-02-23T12:13:01;31.10;;;12.63;;
70997;SDS011;58663;52.040;4.634;2023-02-23T12:23:39;33.78;;;13.20;;
70997;SDS011;58663;52.040;4.634;2023-02-23T12:26:13;36.08;;;12.32;;
70997;SDS011;58663;52.040;4.634;2023-02-23T12:35:32;34.92;;;10.85;;
70997;SDS011;58663;52.040;4.634;2023-02-23T12:40:51;27.35;;;10.38;;
70997;SDS011;58663;52.040;4.634;2023-02-23T12:51:26;25.65;;;10.95;;
70997;SDS011;58663;52.040;4.634;2023-02-23T12:53:54;28.90;;;11.75;;
70997;SDS011;58663;52.040;4.634;2023-02-23T12:56:53;25.58;;;11.32;;
70997;SDS011;58663;52.040;4.634;2023-02-23T12:59:42;24.77;;;9.55;;
70997;SDS011;58663;52.040;4.634;2023-02-23T13:03:31;26.17;;;11.52;;
70997;SDS011;58663;52.040;4.634;2023-02-23T13:06:05;28.52;;;11.27;;
70997;SDS011;58663;52.040;4.634;2023-02-23T13:14:00;26.50;;;11.18;;
70997;SDS011;58663;52.040;4.634;2023-02-23T13:16:31;29.25;;;11.30;;
70997;SDS011;58663;52.040;4.634;2023-02-23T13:19:03;24.85;;;10.57;;
70997;SDS011;58663;52.040;4.634;2023-02-23T13:24:57;25.60;;;10.15;;
70997;SDS011;58663;52.040;4.634;2023-02-23T13:27:42;23.53;;;10.70;;
70997;SDS011;58663;52.040;4.634;2023-02-23T13:30:12;28.67;;;12.55;;
70997;SDS011;58663;52.040;4.634;2023-02-23T13:32:40;33.13;;;12.95;;
70997;SDS011;58663;52.040;4.634;2023-02-23T13:35:07;30.60;;;13.55;;
70997;SDS011;58663;52.040;4.634;2023-02-23T13:37:44;35.83;;;14.50;;
70997;SDS011;58663;52.040;4.634;2023-02-23T13:40:26;32.17;;;13.73;;
70997;SDS011;58663;52.040;4.634;2023-02-23T13:48:45;36.95;;;13.85;;
70997;SDS011;58663;52.040;4.634;2023-02-23T13:53:45;31.90;;;13.60;;
70997;SDS011;58663;52.040;4.634;2023-02-23T13:56:16;28.53;;;11.37;;
70997;SDS011;58663;52.040;4.634;2023-02-23T13:59:01;26.92;;;11.57;;
70997;SDS011;58663;52.040;4.634;2023-02-23T14:01:39;28.33;;;11.07;;
70997;SDS011;58663;52.040;4.634;2023-02-23T14:06:50;24.80;;;9.75;;
70997;SDS011;58663;52.040;4.634;2023-02-23T14:09:35;26.13;;;10.75;;
70997;SDS011;58663;52.040;4.634;2023-02-23T14:20:01;24.00;;;9.82;;
70997;SDS011;58663;52.040;4.634;2023-02-23T14:41:25;34.63;;;12.82;;
70997;SDS011;58663;52.040;4.634;2023-02-23T14:46:24;23.95;;;11.70;;
70997;SDS011;58663;52.040;4.634;2023-02-23T14:49:06;23.95;;;10.38;;
70997;SDS011;58663;52.040;4.634;2023-02-23T14:51:37;20.52;;;10.27;;
70997;SDS011;58663;52.040;4.634;2023-02-23T14:57:04;20.75;;;8.77;;
70997;SDS011;58663;52.040;4.634;2023-02-23T14:59:38;15.50;;;6.93;;
70997;SDS011;58663;52.040;4.634;2023-02-23T15:02:20;14.60;;;5.78;;
70997;SDS011;58663;52.040;4.634;2023-02-23T15:04:48;12.43;;;5.82;;
70997;SDS011;58663;52.040;4.634;2023-02-23T15:07:20;10.55;;;5.03;;
70997;SDS011;58663;52.040;4.634;2023-02-23T15:09:52;13.45;;;4.32;;
70997;SDS011;58663;52.040;4.634;2023-02-23T15:12:35;10.90;;;4.65;;
70997;SDS011;58663;52.040;4.634;2023-02-23T15:15:02;15.48;;;6.05;;
70997;SDS011;58663;52.040;4.634;2023-02-23T15:17:30;15.88;;;5.57;;
70997;SDS011;58663;52.040;4.634;2023-02-23T15:19:58;14.23;;;4.05;;
70997;SDS011;58663;52.040;4.634;2023-02-23T15:22:56;11.55;;;3.78;;
70997;SDS011;58663;52.040;4.634;2023-02-23T15:25:24;7.35;;;3.33;;
70997;SDS011;58663;52.040;4.634;2023-02-23T15:27:57;10.02;;;3.03;;
70997;SDS011;58663;52.040;4.634;2023-02-23T15:33:13;12.52;;;3.22;;
70997;SDS011;58663;52.040;4.634;2023-02-23T15:35:42;15.35;;;3.63;;
70997;SDS011;58663;52.040;4.634;2023-02-23T15:38:14;11.77;;;3.03;;
70997;SDS011;58663;52.040;4.634;2023-02-23T15:40:41;13.63;;;2.65;;
70997;SDS011;58663;52.040;4.634;2023-02-23T15:43:07;12.38;;;3.03;;
70997;SDS011;58663;52.040;4.634;2023-02-23T15:45:37;14.63;;;3.20;;
70997;SDS011;58663;52.040;4.634;2023-02-23T15:48:07;8.27;;;3.22;;
70997;SDS011;58663;52.040;4.634;2023-02-23T15:50:41;17.05;;;3.95;;
70997;SDS011;58663;52.040;4.634;2023-02-23T15:53:12;13.43;;;3.22;;
70997;SDS011;58663;52.040;4.634;2023-02-23T15:56:10;13.98;;;3.33;;
70997;SDS011;58663;52.040;4.634;2023-02-23T15:58:39;12.88;;;3.88;;
70997;SDS011;58663;52.040;4.634;2023-02-23T16:01:10;20.00;;;4.95;;
70997;SDS011;58663;52.040;4.634;2023-02-23T16:03:39;18.02;;;3.75;;
70997;SDS011;58663;52.040;4.634;2023-02-23T16:06:48;22.73;;;3.90;;
70997;SDS011;58663;52.040;4.634;2023-02-23T16:11:33;26.88;;;5.53;;
70997;SDS011;58663;52.040;4.634;2023-02-23T16:14:00;24.02;;;4.45;;
70997;SDS011;58663;52.040;4.634;2023-02-23T16:16:26;18.98;;;4.00;;
70997;SDS011;58663;52.040;4.634;2023-02-23T16:18:52;16.58;;;3.25;;
70997;SDS011;58663;52.040;4.634;2023-02-23T16:21:20;23.08;;;4.35;;
70997;SDS011;58663;52.040;4.634;2023-02-23T16:23:49;19.75;;;3.28;;
70997;SDS011;58663;52.040;4.634;2023-02-23T16:29:04;15.70;;;3.72;;
70997;SDS011;58663;52.040;4.634;2023-02-23T16:31:41;15.67;;;4.00;;
70997;SDS011;58663;52.040;4.634;2023-02-23T16:37:02;28.95;;;4.68;;
70997;SDS011;58663;52.040;4.634;2023-02-23T16:39:29;24.00;;;3.47;;
70997;SDS011;58663;52.040;4.634;2023-02-23T16:41:57;20.45;;;4.13;;
70997;SDS011;58663;52.040;4.634;2023-02-23T16:44:24;28.88;;;4.28;;
70997;SDS011;58663;52.040;4.634;2023-02-23T16:49:29;21.85;;;4.32;;
70997;SDS011;58663;52.040;4.634;2023-02-23T16:51:55;28.98;;;4.75;;
70997;SDS011;58663;52.040;4.634;2023-02-23T16:54:21;22.20;;;4.40;;
70997;SDS011;58663;52.040;4.634;2023-02-23T16:56:46;26.20;;;4.60;;
70997;SDS011;58663;52.040;4.634;2023-02-23T16:59:13;26.70;;;4.22;;
70997;SDS011;58663;52.040;4.634;2023-02-23T17:01:40;24.85;;;4.93;;
70997;SDS011;58663;52.040;4.634;2023-02-23T17:04:12;30.30;;;4.80;;
70997;SDS011;58663;52.040;4.634;2023-02-23T17:06:39;23.83;;;4.60;;
70997;SDS011;58663;52.040;4.634;2023-02-23T17:09:07;22.08;;;4.55;;
70997;SDS011;58663;52.040;4.634;2023-02-23T17:11:33;26.52;;;4.55;;
70997;SDS011;58663;52.040;4.634;2023-02-23T17:13:58;33.53;;;5.93;;
70997;SDS011;58663;52.040;4.634;2023-02-23T17:16:24;28.45;;;4.43;;
70997;SDS011;58663;52.040;4.634;2023-02-23T17:18:49;30.23;;;4.20;;